Time;durP1;ratioP1;P1;durP2;ratioP2;P2;SDS_P1;SDS_P2;PMS_P1;PMS_P2;Temp;Humidity;BMP_temperature;BMP_pressure;BME280_temperature;BME280_humidity;BME280_pressure;Samples;Min_cycle;Max_cycle;Signal;HPM_P1;HPM_P2
2022/02/08 00:02:13;;;;;;;;;6.25;4.50;;;;;;;;5082209;28;10936;-73
2022/02/08 00:04:40;;;;;;;;;9.50;5.25;;;;;;;;5075019;28;11040;-74
2022/02/08 00:07:09;;;;;;;;;6.00;6.00;;;;;;;;5083340;28;10861;-74
2022/02/08 00:09:37;;;;;;;;;6.75;3.00;;;;;;;;5063411;28;10872;-74
2022/02/08 00:12:05;;;;;;;;;5.75;5.00;;;;;;;;5081905;28;10867;-74
2022/02/08 00:14:32;;;;;;;;;4.75;4.50;;;;;;;;5073163;28;10767;-74
2022/02/08 00:17:00;;;;;;;;;3.00;3.00;;;;;;;;5081647;28;10847;-74
2022/02/08 00:19:28;;;;;;;;;6.00;4.50;;;;;;;;5084543;28;10765;-74
2022/02/08 00:21:56;;;;;;;;;3.00;3.00;;;;;;;;5081581;28;11508;-74
2022/02/08 00:24:23;;;;;;;;;1.25;1.25;;;;;;;;5083207;28;10749;-74
2022/02/08 00:26:50;;;;;;;;;2.00;2.00;;;;;;;;5080938;28;10935;-74
2022/02/08 00:29:17;;;;;;;;;3.00;2.00;;;;;;;;5082940;28;10879;-74
2022/02/08 00:31:45;;;;;;;;;3.00;3.00;;;;;;;;5081675;28;10646;-74
2022/02/08 00:34:12;;;;;;;;;2.00;1.00;;;;;;;;5081134;28;11399;-74
2022/02/08 00:36:41;;;;;;;;;4.25;3.50;;;;;;;;5075516;28;10597;-74
2022/02/08 00:39:09;;;;;;;;;4.00;4.00;;;;;;;;5079027;28;10768;-74
2022/02/08 00:41:37;;;;;;;;;5.75;3.50;;;;;;;;5082402;28;10477;-74
2022/02/08 00:44:10;;;;;;;;;6.25;6.25;;;;;;;;5070254;28;10533;-74
2022/02/08 00:46:42;;;;;;;;;6.00;6.00;;;;;;;;5080427;28;10727;-74
2022/02/08 00:49:11;;;;;;;;;3.00;3.00;;;;;;;;5076093;28;10664;-74
2022/02/08 00:51:43;;;;;;;;;5.25;5.25;;;;;;;;5077744;28;10533;-73
2022/02/08 00:54:12;;;;;;;;;5.25;3.00;;;;;;;;5079343;28;10679;-74
2022/02/08 00:56:40;;;;;;;;;5.25;5.25;;;;;;;;5082922;28;10551;-74
2022/02/08 00:59:08;;;;;;;;;3.50;2.75;;;;;;;;5066500;28;10713;-74
2022/02/08 01:01:38;;;;;;;;;6.25;6.25;;;;;;;;5077520;28;10607;-74
2022/02/08 01:04:05;;;;;;;;;7.50;6.25;;;;;;;;5067939;28;10688;-74
2022/02/08 01:06:33;;;;;;;;;3.50;3.50;;;;;;;;5069528;28;10746;-75
2022/02/08 01:09:11;;;;;;;;;8.50;5.50;;;;;;;;5056430;28;10793;-74
2022/02/08 01:11:39;;;;;;;;;7.00;7.00;;;;;;;;5081237;28;11501;-75
2022/02/08 01:14:07;;;;;;;;;4.75;4.75;;;;;;;;5076300;28;10883;-74
2022/02/08 01:16:34;;;;;;;;;6.00;6.00;;;;;;;;5081665;28;10714;-74
2022/02/08 01:19:03;;;;;;;;;7.00;5.25;;;;;;;;5073092;28;10726;-74
2022/02/08 01:21:32;;;;;;;;;5.00;5.00;;;;;;;;5070977;28;10845;-74
2022/02/08 01:24:01;;;;;;;;;6.00;6.00;;;;;;;;5082034;28;10791;-74
2022/02/08 01:26:30;;;;;;;;;5.00;2.50;;;;;;;;5059108;28;10710;-74
2022/02/08 01:29:02;;;;;;;;;8.75;6.25;;;;;;;;5068074;28;10673;-75
2022/02/08 01:31:35;;;;;;;;;8.75;7.00;;;;;;;;5077904;28;10691;-75
2022/02/08 01:34:13;;;;;;;;;6.50;5.75;;;;;;;;5078973;28;10786;-74
2022/02/08 01:36:48;;;;;;;;;6.00;6.00;;;;;;;;5072353;28;10689;-74
2022/02/08 01:39:24;;;;;;;;;5.00;5.00;;;;;;;;5080813;28;10905;-75
2022/02/08 01:44:41;;;;;;;;;7.75;6.00;;;;;;;;5071648;28;11026;-74
2022/02/08 01:47:24;;;;;;;;;6.00;6.00;;;;;;;;5084122;28;10979;-73
2022/02/08 01:50:00;;;;;;;;;8.75;6.00;;;;;;;;5073313;28;10966;-74
2022/02/08 01:52:28;;;;;;;;;9.25;6.25;;;;;;;;5078667;28;11025;-75
2022/02/08 01:54:57;;;;;;;;;3.00;3.00;;;;;;;;5077774;28;11051;-75
2022/02/08 01:57:24;;;;;;;;;6.75;5.00;;;;;;;;5076003;28;10970;-74
2022/02/08 01:59:53;;;;;;;;;5.00;5.00;;;;;;;;5069952;28;10982;-74
2022/02/08 02:02:21;;;;;;;;;9.75;7.00;;;;;;;;5075184;28;10913;-74
2022/02/08 02:04:48;;;;;;;;;6.50;4.00;;;;;;;;5082218;28;10985;-75
2022/02/08 02:07:16;;;;;;;;;12.75;7.00;;;;;;;;5080917;28;10997;-75
2022/02/08 02:09:46;;;;;;;;;9.50;8.50;;;;;;;;5072812;28;11004;-74
2022/02/08 02:12:15;;;;;;;;;6.00;6.00;;;;;;;;5078570;28;11119;-74
2022/02/08 02:14:42;;;;;;;;;9.00;9.00;;;;;;;;5074103;28;11034;-74
2022/02/08 02:17:10;;;;;;;;;3.50;3.00;;;;;;;;5083302;28;11035;-74
2022/02/08 02:19:39;;;;;;;;;8.50;4.00;;;;;;;;5055827;28;11051;-74
2022/02/08 02:22:08;;;;;;;;;4.75;3.50;;;;;;;;5075800;28;11748;-74
2022/02/08 02:24:37;;;;;;;;;6.50;6.00;;;;;;;;5079725;28;10919;-74
2022/02/08 02:27:06;;;;;;;;;3.50;3.50;;;;;;;;5077551;28;10912;-74
2022/02/08 02:29:34;;;;;;;;;5.00;5.00;;;;;;;;5068038;28;11126;-74
2022/02/08 02:32:02;;;;;;;;;5.00;5.00;;;;;;;;5077759;28;10961;-74
2022/02/08 02:34:29;;;;;;;;;8.25;6.00;;;;;;;;5075149;28;10841;-74
2022/02/08 02:36:59;;;;;;;;;5.75;5.75;;;;;;;;5077434;28;11029;-74
2022/02/08 02:39:27;;;;;;;;;5.00;5.00;;;;;;;;5075926;28;10963;-75
2022/02/08 02:41:56;;;;;;;;;11.00;6.75;;;;;;;;5080351;28;10949;-74
2022/02/08 02:44:24;;;;;;;;;9.75;6.50;;;;;;;;5069060;28;11742;-74
2022/02/08 02:46:52;;;;;;;;;9.25;6.00;;;;;;;;5032276;28;11084;-74
2022/02/08 02:49:20;;;;;;;;;9.50;4.50;;;;;;;;5070141;28;11077;-74
2022/02/08 02:51:48;;;;;;;;;6.25;6.25;;;;;;;;5072061;28;10917;-74
2022/02/08 02:54:17;;;;;;;;;6.75;6.75;;;;;;;;5078892;28;10904;-74
2022/02/08 02:56:44;;;;;;;;;4.75;4.00;;;;;;;;5084712;28;10987;-74
2022/02/08 02:59:14;;;;;;;;;7.00;7.00;;;;;;;;5073619;28;10991;-74
2022/02/08 03:01:59;;;;;;;;;6.75;6.00;;;;;;;;5081643;28;10916;-74
2022/02/08 03:04:36;;;;;;;;;9.25;6.00;;;;;;;;5077052;28;11071;-74
2022/02/08 03:18:33;;;;;;;;;7.00;7.00;;;;;;;;5078581;28;10988;-75
2022/02/08 03:21:02;;;;;;;;;7.00;6.25;;;;;;;;5085053;28;10999;-75
2022/02/08 03:23:29;;;;;;;;;7.75;7.25;;;;;;;;5083411;28;10915;-75
2022/02/08 03:25:57;;;;;;;;;6.25;6.00;;;;;;;;5078634;28;11027;-74
2022/02/08 03:28:24;;;;;;;;;9.00;6.50;;;;;;;;5081590;28;10976;-75
2022/02/08 03:30:53;;;;;;;;;7.50;4.50;;;;;;;;5068790;28;11701;-75
2022/02/08 03:33:21;;;;;;;;;5.00;5.00;;;;;;;;5075602;28;11952;-75
2022/02/08 03:35:50;;;;;;;;;3.00;3.00;;;;;;;;5078046;28;11593;-75
2022/02/08 03:38:22;;;;;;;;;6.50;5.50;;;;;;;;5082408;28;11495;-74
2022/02/08 03:40:52;;;;;;;;;5.00;5.00;;;;;;;;5062118;28;10954;-74
2022/02/08 03:43:29;;;;;;;;;5.75;5.75;;;;;;;;5080694;28;10760;-74
2022/02/08 03:46:02;;;;;;;;;6.00;6.00;;;;;;;;5064167;28;10754;-75
2022/02/08 03:48:31;;;;;;;;;5.50;5.50;;;;;;;;5071354;28;10743;-74
2022/02/08 03:51:09;;;;;;;;;5.75;4.00;;;;;;;;5076816;28;10691;-74
2022/02/08 03:53:37;;;;;;;;;6.50;5.25;;;;;;;;5075560;28;10872;-74
2022/02/08 03:56:06;;;;;;;;;2.75;2.75;;;;;;;;5075874;28;10776;-74
2022/02/08 03:58:33;;;;;;;;;7.00;7.00;;;;;;;;5071873;28;10611;-74
2022/02/08 04:01:27;;;;;;;;;5.50;5.50;;;;;;;;5078415;28;10550;-74
2022/02/08 04:04:17;;;;;;;;;6.00;6.00;;;;;;;;5077873;28;10623;-74
2022/02/08 04:06:47;;;;;;;;;5.00;5.00;;;;;;;;5082273;28;10909;-76
2022/02/08 04:09:17;;;;;;;;;6.25;4.00;;;;;;;;5077956;28;10692;-74
2022/02/08 04:11:54;;;;;;;;;5.00;5.00;;;;;;;;5083335;28;10623;-74
2022/02/08 04:14:29;;;;;;;;;5.00;5.00;;;;;;;;5076153;28;10672;-74
2022/02/08 04:17:05;;;;;;;;;3.75;3.00;;;;;;;;5068978;28;10456;-74
2022/02/08 04:19:37;;;;;;;;;6.25;4.50;;;;;;;;5085489;28;10576;-74
2022/02/08 04:33:13;;;;;;;;;3.75;2.75;;;;;;;;5071797;28;10432;-75
2022/02/08 04:35:59;;;;;;;;;5.00;5.00;;;;;;;;5084304;28;10620;-74
2022/02/08 04:38:39;;;;;;;;;7.00;5.25;;;;;;;;5083533;28;10675;-75
2022/02/08 04:41:10;;;;;;;;;5.00;5.00;;;;;;;;5082929;28;10682;-74
2022/02/08 04:43:50;;;;;;;;;5.00;5.00;;;;;;;;5071333;28;10686;-75
2022/02/08 04:46:28;;;;;;;;;5.25;5.25;;;;;;;;5055441;28;10615;-75
2022/02/08 04:48:58;;;;;;;;;4.50;4.50;;;;;;;;5082826;28;10694;-75
2022/02/08 04:51:31;;;;;;;;;5.00;5.00;;;;;;;;5062688;28;10558;-74
2022/02/08 04:54:07;;;;;;;;;5.75;3.00;;;;;;;;5082026;28;10693;-74
2022/02/08 04:59:32;;;;;;;;;5.00;5.00;;;;;;;;5080262;28;10706;-74
2022/02/08 05:26:38;;;;;;;;;7.00;6.00;;;;;;;;5072693;28;10554;-74
2022/02/08 05:28:02;;;;;;;;;5.00;3.00;;;;;;;;5069992;28;10448;-74
2022/02/08 05:35:57;;;;;;;;;2.75;2.75;;;;;;;;5022646;28;10542;-75
2022/02/08 05:41:42;;;;;;;;;7.25;4.00;;;;;;;;5078657;28;10472;-75
2022/02/08 05:44:25;;;;;;;;;1.25;1.25;;;;;;;;5075855;28;10623;-76
2022/02/08 05:46:53;;;;;;;;;5.00;5.00;;;;;;;;5077267;28;10397;-76
2022/02/08 05:49:39;;;;;;;;;3.00;3.00;;;;;;;;5075903;28;10402;-76
2022/02/08 05:54:57;;;;;;;;;2.00;2.00;;;;;;;;5072788;28;10257;-75
2022/02/08 05:57:25;;;;;;;;;2.00;2.00;;;;;;;;5082696;28;10388;-75
2022/02/08 05:59:53;;;;;;;;;2.00;2.00;;;;;;;;5083881;28;10458;-75
2022/02/08 06:02:21;;;;;;;;;6.00;2.00;;;;;;;;5074427;28;10287;-75
2022/02/08 06:04:49;;;;;;;;;2.00;2.00;;;;;;;;5072791;28;10358;-76
2022/02/08 06:07:18;;;;;;;;;2.50;2.00;;;;;;;;5073364;28;10316;-75
2022/02/08 06:09:48;;;;;;;;;1.00;1.00;;;;;;;;5081922;28;10378;-76
2022/02/08 06:12:17;;;;;;;;;3.00;1.00;;;;;;;;5074692;28;10371;-75
2022/02/08 06:14:45;;;;;;;;;1.00;1.00;;;;;;;;5064144;28;10185;-75
2022/02/08 06:17:13;;;;;;;;;2.00;2.00;;;;;;;;5070713;28;10604;-75
2022/02/08 06:19:40;;;;;;;;;2.75;1.00;;;;;;;;5077933;28;11000;-75
2022/02/08 06:22:07;;;;;;;;;1.00;1.00;;;;;;;;5072512;28;10310;-75
2022/02/08 06:24:34;;;;;;;;;4.00;4.00;;;;;;;;5078932;28;10139;-76
2022/02/08 06:27:02;;;;;;;;;2.75;2.75;;;;;;;;5075536;28;10236;-76
2022/02/08 06:29:30;;;;;;;;;2.50;2.50;;;;;;;;5085726;28;10318;-74
2022/02/08 06:31:58;;;;;;;;;4.50;3.00;;;;;;;;5083335;28;10451;-73
2022/02/08 06:34:30;;;;;;;;;3.50;3.50;;;;;;;;5085172;28;10499;-71
2022/02/08 06:37:03;;;;;;;;;1.00;1.00;;;;;;;;5055580;28;10406;-74
2022/02/08 06:39:34;;;;;;;;;1.50;1.50;;;;;;;;5087059;28;10301;-75
2022/02/08 06:42:02;;;;;;;;;1.00;1.00;;;;;;;;5083136;28;10062;-75
2022/02/08 06:44:30;;;;;;;;;1.75;1.75;;;;;;;;5068517;28;10164;-73
2022/02/08 06:46:58;;;;;;;;;2.00;2.00;;;;;;;;5086870;28;10283;-76
2022/02/08 06:49:25;;;;;;;;;4.25;2.00;;;;;;;;5076136;28;10402;-75
2022/02/08 06:51:53;;;;;;;;;2.50;2.50;;;;;;;;5034819;28;10273;-75
2022/02/08 06:54:20;;;;;;;;;1.50;1.50;;;;;;;;5082978;28;11330;-74
2022/02/08 06:56:47;;;;;;;;;4.50;3.00;;;;;;;;5061060;28;10321;-75
2022/02/08 06:59:17;;;;;;;;;2.00;2.00;;;;;;;;5084724;28;11249;-74
2022/02/08 07:01:46;;;;;;;;;2.75;2.75;;;;;;;;5085456;28;10252;-74
2022/02/08 07:04:15;;;;;;;;;2.00;2.00;;;;;;;;5075521;28;10429;-75
2022/02/08 07:06:42;;;;;;;;;3.00;1.50;;;;;;;;5074387;28;10838;-75
2022/02/08 07:09:11;;;;;;;;;2.00;2.00;;;;;;;;5066887;28;10458;-73
2022/02/08 07:11:38;;;;;;;;;4.00;2.75;;;;;;;;5070233;28;10310;-74
2022/02/08 07:14:06;;;;;;;;;2.50;2.50;;;;;;;;5086942;28;10428;-75
2022/02/08 07:16:34;;;;;;;;;3.00;3.00;;;;;;;;5077461;28;10390;-75
2022/02/08 07:19:02;;;;;;;;;7.00;6.00;;;;;;;;5083545;28;11170;-74
2022/02/08 07:21:29;;;;;;;;;5.50;2.00;;;;;;;;5081239;28;10325;-75
2022/02/08 07:23:57;;;;;;;;;2.25;1.50;;;;;;;;5085796;28;10366;-74
2022/02/08 07:26:24;;;;;;;;;4.00;4.00;;;;;;;;5071665;28;10271;-75
2022/02/08 07:28:51;;;;;;;;;3.50;3.50;;;;;;;;5079562;28;10407;-76
2022/02/08 07:31:21;;;;;;;;;4.00;3.00;;;;;;;;5083036;28;10515;-75
2022/02/08 07:33:55;;;;;;;;;8.00;5.25;;;;;;;;5074203;28;10377;-75
2022/02/08 07:36:33;;;;;;;;;4.50;4.50;;;;;;;;5081308;28;10652;-75
2022/02/08 07:39:01;;;;;;;;;6.25;5.50;;;;;;;;5084464;28;10379;-75
2022/02/08 07:41:38;;;;;;;;;2.00;2.00;;;;;;;;5078564;28;10485;-76
2022/02/08 07:44:07;;;;;;;;;6.00;6.00;;;;;;;;5084640;28;10459;-75
2022/02/08 07:46:34;;;;;;;;;5.50;5.00;;;;;;;;5082218;28;10521;-76
2022/02/08 07:49:03;;;;;;;;;4.50;4.50;;;;;;;;5080297;28;10501;-75
2022/02/08 07:51:33;;;;;;;;;4.25;3.00;;;;;;;;5080580;28;10365;-80
2022/02/08 07:54:01;;;;;;;;;3.00;3.00;;;;;;;;5075287;28;10555;-79
2022/02/08 07:56:28;;;;;;;;;2.50;2.50;;;;;;;;5079294;28;10359;-88
2022/02/08 07:58:56;;;;;;;;;2.25;2.25;;;;;;;;5076031;28;10354;-88
2022/02/08 08:01:23;;;;;;;;;5.00;5.00;;;;;;;;5089986;28;11263;-85
2022/02/08 08:03:51;;;;;;;;;4.00;4.00;;;;;;;;5073326;28;10459;-87
2022/02/08 08:06:19;;;;;;;;;2.00;2.00;;;;;;;;5084570;28;10336;-91
2022/02/08 08:08:48;;;;;;;;;6.25;4.00;;;;;;;;5083754;28;10453;-85
2022/02/08 08:11:21;;;;;;;;;3.00;3.00;;;;;;;;5072593;28;10494;-79
2022/02/08 08:13:51;;;;;;;;;3.75;2.25;;;;;;;;5074199;28;10577;-85
2022/02/08 08:16:42;;;;;;;;;3.00;3.00;;;;;;;;5075598;28;10474;-90
2022/02/08 08:19:20;;;;;;;;;2.00;2.00;;;;;;;;5078997;28;10398;-80
2022/02/08 08:21:48;;;;;;;;;2.00;2.00;;;;;;;;5071160;28;10314;-80
2022/02/08 08:24:17;;;;;;;;;2.50;1.00;;;;;;;;5053680;28;10361;-80
2022/02/08 08:26:45;;;;;;;;;1.00;1.00;;;;;;;;5076815;28;10237;-81
2022/02/08 08:29:12;;;;;;;;;1.50;1.00;;;;;;;;5079024;28;10187;-78
2022/02/08 08:31:39;;;;;;;;;0.00;0.00;;;;;;;;5085198;28;10126;-80
2022/02/08 08:34:06;;;;;;;;;1.00;1.00;;;;;;;;5080799;28;10188;-80
2022/02/08 08:36:34;;;;;;;;;0.50;0.50;;;;;;;;5081568;28;10227;-78
2022/02/08 08:39:03;;;;;;;;;0.00;0.00;;;;;;;;5069462;28;10006;-74
2022/02/08 08:41:37;;;;;;;;;1.00;1.00;;;;;;;;5079332;28;10075;-80
2022/02/08 08:49:50;;;;;;;;;0.00;0.00;;;;;;;;5078974;28;10026;-81
2022/02/08 08:52:28;;;;;;;;;0.50;0.50;;;;;;;;5080800;28;10017;-82
2022/02/08 08:54:55;;;;;;;;;0.00;0.00;;;;;;;;5063854;28;9872;-76
2022/02/08 08:57:24;;;;;;;;;1.00;1.00;;;;;;;;5073657;28;9856;-77
2022/02/08 08:59:51;;;;;;;;;0.00;0.00;;;;;;;;5073775;28;9782;-80
2022/02/08 09:02:18;;;;;;;;;0.25;0.25;;;;;;;;5066433;28;9741;-76
2022/02/08 09:04:47;;;;;;;;;0.00;0.00;;;;;;;;5072480;28;9685;-76
2022/02/08 09:07:15;;;;;;;;;0.00;0.00;;;;;;;;5079384;28;9719;-77
2022/02/08 09:09:46;;;;;;;;;0.00;0.00;;;;;;;;5081550;28;9622;-76
2022/02/08 09:12:22;;;;;;;;;1.00;1.00;;;;;;;;5069131;28;9705;-80
2022/02/08 09:17:57;;;;;;;;;0.00;0.00;;;;;;;;5035279;28;10970;-80
2022/02/08 09:23:58;;;;;;;;;0.00;0.00;;;;;;;;5084737;28;9489;-80
2022/02/08 09:26:47;;;;;;;;;0.00;0.00;;;;;;;;5073591;28;9406;-81
2022/02/08 09:29:22;;;;;;;;;0.00;0.00;;;;;;;;5067176;28;10159;-81
2022/02/08 09:32:00;;;;;;;;;2.00;0.00;;;;;;;;5080593;28;9225;-77
2022/02/08 09:34:29;;;;;;;;;0.00;0.00;;;;;;;;5048299;28;9268;-78
2022/02/08 09:36:56;;;;;;;;;0.00;0.00;;;;;;;;5080746;28;9395;-78
2022/02/08 09:39:23;;;;;;;;;0.67;0.00;;;;;;;;5082520;28;9260;-78
2022/02/08 09:41:53;;;;;;;;;0.00;0.00;;;;;;;;5070320;28;9385;-81
2022/02/08 09:44:25;;;;;;;;;0.00;0.00;;;;;;;;5080515;28;9958;-78
2022/02/08 09:46:54;;;;;;;;;0.00;0.00;;;;;;;;5081357;28;9356;-78
2022/02/08 09:49:22;;;;;;;;;0.00;0.00;;;;;;;;5073717;28;9293;-78
2022/02/08 09:51:51;;;;;;;;;1.00;1.00;;;;;;;;5080757;28;9186;-79
2022/02/08 09:54:19;;;;;;;;;0.00;0.00;;;;;;;;5070884;28;9382;-80
2022/02/08 09:56:47;;;;;;;;;1.00;1.00;;;;;;;;5075307;28;9376;-78
2022/02/08 09:59:15;;;;;;;;;0.33;0.33;;;;;;;;5076679;28;9441;-79
2022/02/08 10:01:53;;;;;;;;;1.00;1.00;;;;;;;;5077969;28;9265;-80
2022/02/08 10:04:21;;;;;;;;;1.00;1.00;;;;;;;;5066295;28;9340;-79
2022/02/08 10:06:48;;;;;;;;;1.00;1.00;;;;;;;;5071713;28;9253;-82
2022/02/08 10:09:16;;;;;;;;;2.00;2.00;;;;;;;;5076043;28;9265;-78
2022/02/08 10:11:46;;;;;;;;;0.00;0.00;;;;;;;;5063372;28;9275;-80
2022/02/08 10:14:22;;;;;;;;;0.00;0.00;;;;;;;;5045494;28;9282;-82
2022/02/08 10:22:37;;;;;;;;;1.00;1.00;;;;;;;;5078767;28;9082;-82
2022/02/08 10:25:07;;;;;;;;;0.00;0.00;;;;;;;;5077090;28;9015;-84
2022/02/08 10:27:38;;;;;;;;;1.00;1.00;;;;;;;;5071089;28;8931;-81
2022/02/08 10:38:39;;;;;;;;;3.00;1.67;;;;;;;;5065435;28;8923;-81
2022/02/08 10:41:12;;;;;;;;;1.00;1.00;;;;;;;;5070225;28;9031;-79
2022/02/08 10:43:40;;;;;;;;;1.75;1.75;;;;;;;;5066672;28;8961;-81
2022/02/08 10:46:18;;;;;;;;;3.67;1.00;;;;;;;;5079748;28;9446;-80
2022/02/08 10:48:47;;;;;;;;;2.00;0.67;;;;;;;;5079158;28;9091;-81
2022/02/08 10:51:16;;;;;;;;;1.00;1.00;;;;;;;;5078920;28;9000;-77
2022/02/08 10:53:54;;;;;;;;;1.67;1.67;;;;;;;;5068812;28;9064;-82
2022/02/08 10:56:26;;;;;;;;;1.00;1.00;;;;;;;;5075866;28;9036;-83
2022/02/08 10:59:06;;;;;;;;;1.00;1.00;;;;;;;;5077318;28;9109;-84
2022/02/08 11:01:42;;;;;;;;;1.33;1.33;;;;;;;;5075769;28;9204;-83
2022/02/08 11:04:17;;;;;;;;;2.00;2.00;;;;;;;;5070605;28;10056;-79
2022/02/08 11:06:51;;;;;;;;;2.00;2.00;;;;;;;;5080589;28;9165;-77
2022/02/08 11:09:26;;;;;;;;;2.00;2.00;;;;;;;;5079800;28;9276;-80
2022/02/08 11:15:00;;;;;;;;;0.67;0.67;;;;;;;;5076061;28;9458;-74
2022/02/08 11:20:34;;;;;;;;;3.25;3.00;;;;;;;;5070001;28;9424;-79
2022/02/08 11:23:13;;;;;;;;;2.00;2.00;;;;;;;;5083754;28;9520;-70
2022/02/08 11:25:43;;;;;;;;;2.67;2.67;;;;;;;;5083288;28;9328;-78
2022/02/08 11:28:18;;;;;;;;;4.00;4.00;;;;;;;;5082572;28;9471;-75
2022/02/08 11:31:02;;;;;;;;;2.33;2.33;;;;;;;;5077093;28;9518;-77
2022/02/08 11:44:54;;;;;;;;;1.00;1.00;;;;;;;;5076822;28;9442;-80
2022/02/08 11:47:49;;;;;;;;;2.67;2.67;;;;;;;;5082680;28;9521;-81
2022/02/08 11:53:34;;;;;;;;;2.00;2.00;;;;;;;;5032024;28;9568;-80
2022/02/08 11:58:54;;;;;;;;;2.00;2.00;;;;;;;;5064631;28;9434;-83
2022/02/08 12:01:38;;;;;;;;;2.00;2.00;;;;;;;;5071949;28;9205;-78
2022/02/08 12:04:37;;;;;;;;;1.00;1.00;;;;;;;;5081149;28;9076;-78
2022/02/08 12:07:09;;;;;;;;;0.00;0.00;;;;;;;;5079809;28;9097;-77
2022/02/08 12:09:44;;;;;;;;;0.00;0.00;;;;;;;;5082817;28;9026;-83
2022/02/08 12:12:53;;;;;;;;;1.00;1.00;;;;;;;;5086357;28;9224;-77
2022/02/08 12:32:30;;;;;;;;;2.00;2.00;;;;;;;;5007653;28;10336;-78
2022/02/08 12:52:23;;;;;;;;;3.33;3.00;;;;;;;;5085458;28;9127;-76
2022/02/08 12:54:51;;;;;;;;;4.00;3.00;;;;;;;;5083176;28;10010;-77
2022/02/08 13:00:30;;;;;;;;;3.00;3.00;;;;;;;;5107220;27;13531;-79
2022/02/08 13:06:15;;;;;;;;;3.00;2.00;;;;;;;;5073279;28;10036;-77
2022/02/08 14:01:49;;;;;;;;;7.00;4.00;;;;;;;;5056026;28;9117;-87
2022/02/08 14:07:10;;;;;;;;;4.67;4.00;;;;;;;;5075947;28;9173;-77
2022/02/08 14:17:58;;;;;;;;;4.00;4.00;;;;;;;;5052170;28;9260;-78
2022/02/08 14:25:59;;;;;;;;;3.00;3.00;;;;;;;;5059438;28;10073;-78
2022/02/08 14:31:40;;;;;;;;;4.67;4.67;;;;;;;;5062882;28;9261;-77
2022/02/08 14:37:04;;;;;;;;;4.00;4.00;;;;;;;;5055879;28;9405;-76
2022/02/08 15:09:58;;;;;;;;;4.00;4.00;;;;;;;;5045768;28;9402;-82
2022/02/08 15:12:31;;;;;;;;;4.50;3.75;;;;;;;;5050364;28;9428;-74
2022/02/08 15:15:00;;;;;;;;;3.50;3.25;;;;;;;;5058344;28;10374;-77
2022/02/08 15:17:28;;;;;;;;;6.00;6.00;;;;;;;;5045087;28;9386;-78
2022/02/08 15:19:58;;;;;;;;;7.50;7.50;;;;;;;;5063772;28;9622;-79
2022/02/08 15:22:26;;;;;;;;;5.00;5.00;;;;;;;;5064709;28;9769;-79
2022/02/08 15:24:54;;;;;;;;;6.00;6.00;;;;;;;;5060511;28;9507;-79
2022/02/08 15:27:22;;;;;;;;;7.00;4.50;;;;;;;;5059862;28;9585;-77
2022/02/08 15:29:55;;;;;;;;;8.25;6.25;;;;;;;;5061638;28;9592;-77
2022/02/08 15:32:23;;;;;;;;;6.50;6.50;;;;;;;;5063417;28;10287;-78
2022/02/08 15:34:50;;;;;;;;;4.00;4.00;;;;;;;;5061197;28;9467;-78
2022/02/08 15:37:18;;;;;;;;;6.00;6.00;;;;;;;;5060935;28;9495;-77
2022/02/08 15:39:45;;;;;;;;;7.00;7.00;;;;;;;;5050000;28;9674;-79
2022/02/08 15:42:12;;;;;;;;;3.00;3.00;;;;;;;;5054842;28;9894;-76
2022/02/08 15:44:45;;;;;;;;;5.00;5.00;;;;;;;;5055840;28;10306;-80
2022/02/08 15:47:17;;;;;;;;;5.50;5.50;;;;;;;;5060178;28;10385;-77
2022/02/08 15:49:55;;;;;;;;;6.75;6.75;;;;;;;;5052148;28;9821;-75
2022/02/08 15:52:30;;;;;;;;;4.50;4.50;;;;;;;;5057057;28;9593;-80
2022/02/08 15:54:59;;;;;;;;;6.00;6.00;;;;;;;;5056176;28;9755;-80
2022/02/08 15:58:01;;;;;;;;;6.00;6.00;;;;;;;;5059344;28;9537;-79
2022/02/08 16:00:49;;;;;;;;;6.50;6.50;;;;;;;;5051633;28;9544;-77
2022/02/08 16:08:57;;;;;;;;;6.75;6.75;;;;;;;;5054028;28;10415;-76
2022/02/08 16:14:24;;;;;;;;;5.25;5.00;;;;;;;;5053321;28;9645;-76
2022/02/08 16:17:02;;;;;;;;;7.00;6.00;;;;;;;;5058987;28;9652;-77
2022/02/08 16:19:45;;;;;;;;;8.00;7.00;;;;;;;;5059290;28;9651;-77
2022/02/08 16:22:33;;;;;;;;;10.25;8.25;;;;;;;;5057698;28;9571;-81
2022/02/08 16:25:11;;;;;;;;;8.25;7.50;;;;;;;;5055290;28;9725;-80
2022/02/08 16:27:52;;;;;;;;;7.00;6.00;;;;;;;;5063949;28;9841;-83
2022/02/08 16:53:04;;;;;;;;;7.00;7.00;;;;;;;;5043869;28;9579;-80
2022/02/08 16:55:46;;;;;;;;;7.00;5.25;;;;;;;;5057631;28;9653;-80
2022/02/08 16:58:25;;;;;;;;;7.75;7.75;;;;;;;;5062638;28;9557;-75
2022/02/08 17:00:56;;;;;;;;;8.50;7.00;;;;;;;;5079906;28;9396;-77
2022/02/08 17:03:28;;;;;;;;;8.00;8.00;;;;;;;;5076942;28;9525;-76
2022/02/08 17:05:56;;;;;;;;;9.00;7.25;;;;;;;;5067785;28;9473;-74
2022/02/08 17:08:26;;;;;;;;;7.00;6.00;;;;;;;;5070684;28;9420;-74
2022/02/08 17:10:57;;;;;;;;;8.00;8.00;;;;;;;;5080326;28;9460;-77
2022/02/08 17:13:39;;;;;;;;;9.00;9.00;;;;;;;;5078863;28;9535;-78
2022/02/08 17:16:16;;;;;;;;;8.75;8.75;;;;;;;;5061639;28;9720;-78
2022/02/08 17:36:08;;;;;;;;;7.00;7.00;;;;;;;;5077111;28;9593;-80
2022/02/08 17:46:59;;;;;;;;;7.00;7.00;;;;;;;;5062289;28;9698;-81
2022/02/08 17:49:27;;;;;;;;;9.50;7.00;;;;;;;;5076393;28;9816;-81
2022/02/08 17:51:54;;;;;;;;;9.50;6.00;;;;;;;;5073991;28;9695;-82
2022/02/08 17:54:22;;;;;;;;;7.50;4.00;;;;;;;;5082341;28;9689;-80
2022/02/08 17:56:50;;;;;;;;;3.75;3.75;;;;;;;;5071904;28;9701;-79
2022/02/08 17:59:20;;;;;;;;;7.00;4.00;;;;;;;;5084888;28;9614;-82
2022/02/08 18:01:50;;;;;;;;;3.75;3.75;;;;;;;;5083538;28;9557;-81
2022/02/08 18:04:17;;;;;;;;;3.25;3.00;;;;;;;;5068786;28;9568;-77
2022/02/08 18:06:45;;;;;;;;;3.00;3.00;;;;;;;;5085264;28;9585;-80
2022/02/08 18:09:14;;;;;;;;;5.25;4.00;;;;;;;;5076494;28;9533;-83
2022/02/08 18:11:42;;;;;;;;;3.75;2.75;;;;;;;;5073273;28;9532;-78
2022/02/08 18:14:16;;;;;;;;;6.00;3.25;;;;;;;;5080429;28;9562;-77
2022/02/08 18:16:50;;;;;;;;;4.50;4.50;;;;;;;;5060303;28;9712;-79
2022/02/08 18:19:21;;;;;;;;;3.00;3.00;;;;;;;;5064931;28;9720;-80
2022/02/08 18:21:54;;;;;;;;;6.25;6.25;;;;;;;;5080218;28;9819;-80
2022/02/08 18:24:32;;;;;;;;;7.00;7.00;;;;;;;;5080589;28;9643;-81
2022/02/08 19:08:22;;;;;;;;;11.25;11.25;;;;;;;;5067429;28;9762;-78
2022/02/08 19:11:40;;;;;;;;;8.25;8.25;;;;;;;;5076711;28;10637;-76
2022/02/08 19:17:07;;;;;;;;;12.00;12.00;;;;;;;;5038513;28;9760;-76
2022/02/08 19:19:44;;;;;;;;;8.00;8.00;;;;;;;;5074838;28;9786;-75
2022/02/08 19:22:12;;;;;;;;;8.50;8.50;;;;;;;;5079506;28;9716;-76
2022/02/08 19:24:40;;;;;;;;;10.25;8.00;;;;;;;;5072560;28;9741;-76
2022/02/08 19:27:07;;;;;;;;;5.75;5.75;;;;;;;;5081530;28;9819;-75
2022/02/08 19:29:36;;;;;;;;;9.50;9.50;;;;;;;;5080749;28;9659;-76
2022/02/08 19:32:08;;;;;;;;;6.25;6.25;;;;;;;;5077989;28;10119;-76
2022/02/08 19:34:38;;;;;;;;;6.00;6.00;;;;;;;;5066403;28;9720;-76
2022/02/08 19:37:07;;;;;;;;;6.00;6.00;;;;;;;;5074772;28;9687;-76
2022/02/08 19:39:36;;;;;;;;;9.00;7.50;;;;;;;;5083232;28;9556;-76
2022/02/08 19:42:04;;;;;;;;;12.25;8.50;;;;;;;;5080481;28;9618;-76
2022/02/08 19:44:31;;;;;;;;;7.00;6.00;;;;;;;;5083023;28;9746;-75
2022/02/08 19:46:59;;;;;;;;;11.00;9.00;;;;;;;;5055581;28;9657;-76
2022/02/08 19:49:27;;;;;;;;;7.00;7.00;;;;;;;;5060781;28;9545;-76
2022/02/08 19:51:56;;;;;;;;;13.00;10.50;;;;;;;;5054966;28;9621;-76
2022/02/08 19:54:27;;;;;;;;;6.75;4.50;;;;;;;;5082169;28;9704;-76
2022/02/08 19:57:00;;;;;;;;;11.50;11.50;;;;;;;;5084005;28;9693;-76
2022/02/08 19:59:35;;;;;;;;;12.75;12.75;;;;;;;;5071611;28;9844;-75
2022/02/08 20:02:05;;;;;;;;;12.25;12.25;;;;;;;;5081377;28;10564;-76
2022/02/08 20:04:34;;;;;;;;;14.25;12.75;;;;;;;;5082767;28;9834;-76
2022/02/08 20:07:04;;;;;;;;;9.75;9.75;;;;;;;;5082234;28;9812;-76
2022/02/08 20:09:31;;;;;;;;;11.00;8.50;;;;;;;;5078382;28;9608;-76
2022/02/08 20:12:00;;;;;;;;;9.50;9.50;;;;;;;;5078990;28;9709;-76
2022/02/08 20:14:30;;;;;;;;;9.25;9.25;;;;;;;;5079234;28;9656;-77
2022/02/08 20:16:58;;;;;;;;;13.00;10.50;;;;;;;;5081440;28;10320;-76
2022/02/08 20:19:27;;;;;;;;;12.00;12.00;;;;;;;;5074576;28;9729;-77
2022/02/08 20:22:01;;;;;;;;;13.00;13.00;;;;;;;;5077977;28;9649;-77
2022/02/08 20:24:30;;;;;;;;;12.75;12.50;;;;;;;;5081128;28;9713;-77
2022/02/08 20:27:25;;;;;;;;;12.75;12.50;;;;;;;;5075974;28;10853;-77
2022/02/08 20:29:54;;;;;;;;;18.75;15.00;;;;;;;;5075028;28;9679;-76
2022/02/08 20:32:22;;;;;;;;;13.75;13.25;;;;;;;;5080584;28;9727;-77
2022/02/08 20:34:49;;;;;;;;;17.00;13.00;;;;;;;;5081403;28;9771;-77
2022/02/08 20:37:17;;;;;;;;;14.50;14.50;;;;;;;;5080120;28;9798;-77
2022/02/08 20:39:45;;;;;;;;;13.00;10.75;;;;;;;;5079452;28;10056;-77
2022/02/08 20:42:13;;;;;;;;;15.75;15.75;;;;;;;;5076275;28;9706;-76
2022/02/08 20:44:43;;;;;;;;;14.75;13.25;;;;;;;;5062675;28;9923;-77
2022/02/08 20:47:20;;;;;;;;;15.75;14.00;;;;;;;;5076776;28;9966;-75
2022/02/08 20:49:51;;;;;;;;;16.50;14.75;;;;;;;;5076844;28;9872;-76
2022/02/08 20:52:19;;;;;;;;;14.25;12.50;;;;;;;;5062655;28;9810;-76
2022/02/08 20:54:51;;;;;;;;;16.25;15.25;;;;;;;;5077287;28;9955;-76
2022/02/08 20:57:23;;;;;;;;;6.00;6.00;;;;;;;;5074862;28;10884;-77
2022/02/08 20:59:52;;;;;;;;;17.25;15.00;;;;;;;;5068187;28;9891;-77
2022/02/08 21:02:24;;;;;;;;;18.25;15.75;;;;;;;;5081419;28;10015;-77
2022/02/08 21:05:03;;;;;;;;;16.50;13.75;;;;;;;;5076994;28;9888;-76
2022/02/08 21:07:31;;;;;;;;;15.75;15.75;;;;;;;;5074004;28;9938;-76
2022/02/08 21:10:00;;;;;;;;;17.50;13.25;;;;;;;;5077908;28;10029;-77
2022/02/08 21:12:41;;;;;;;;;13.00;13.00;;;;;;;;5075276;28;10136;-77